Nearby METAR Reports

 

KOJC - Olathe/Executive, Kansas, USA
Distance from station: N 14mi, 23km
Updated: Sat, 25-Jun-2022 5:53am CDT
Clear
Clear
 Wind from S
Wind: S 9 mph , 15 km/h
Temperature: 79°F , 26°C
Dew Point: 72°F , 22°C
Humidity: 79%
Barometer: 29.88 inHg , 1011.9 hPa
Clouds: Clear
Visibility: 10 miles , 16 km
2022/06/25 10:53 KOJC 251053Z AUTO 19008KT 10SM CLR 26/22 A2988 RMK AO2 SLP103 T02610222
KIXD - Olathe/Industria, Kansas, USA
Distance from station: NW 15mi, 25km
Updated: Sat, 25-Jun-2022 5:56am CDT
Clear
Clear
 Wind from S
Wind: S 10 mph , 17 km/h
Temperature: 75°F , 24°C
Dew Point: 72°F , 22°C
Humidity: 89%
Barometer: 29.88 inHg , 1011.9 hPa
Clouds: Clear
Visibility: 10 miles , 16 km
2022/06/25 10:56 KIXD 251056Z 18009KT 10SM CLR 24/22 A2988 RMK AO2 T02440222
 
KLXT - Lees Summit Muni, Missouri, USA
Distance from station: NE 28mi, 46km
Updated: Sat, 25-Jun-2022 5:53am CDT
Clear
Clear
 Wind from S
Wind: S 13 mph , 20 km/h, Gust: 24 mph , 39 km/h
Temperature: 79°F , 26°C
Dew Point: 72°F , 22°C
Humidity: 79%
Barometer: 29.88 inHg , 1011.9 hPa
Clouds: Clear
Visibility: 10 miles , 16 km
2022/06/25 10:53 KLXT 251053Z AUTO 19011G21KT 10SM CLR 26/22 A2988 RMK AO2 SLP104 T02610222
KMKC - Kansas City/Dntn, Missouri, USA
Distance from station: N 33mi, 53km
Updated: Sat, 25-Jun-2022 5:54am CDT
Clear
Clear
 Wind from SSW
Wind: SSW 9 mph , 15 km/h
Temperature: 81°F , 27°C
Heat Index: 86°F , 30°C
Dew Point: 73°F , 23°C
Humidity: 79%
Barometer: 29.85 inHg , 1010.8 hPa
Clouds: Clear
Visibility: 10 miles , 16 km
2022/06/25 10:54 KMKC 251054Z 21008KT 10SM CLR 27/23 A2985 RMK AO2 SLP097 T02670228
 
KLWC - Lawrence, Kansas, USA
Distance from station: NW 38mi, 61km
Updated: Sat, 25-Jun-2022 5:52am CDT
Clear
Clear
 Wind from ESE
Wind: ESE 3 mph , 6 km/h
Temperature: 81°F , 27°C
Heat Index: 86°F , 30°C
Dew Point: 73°F , 23°C
Humidity: 79%
Barometer: 29.86 inHg , 1011.2 hPa
Clouds: Clear
Visibility: 10 miles , 16 km
2022/06/25 10:52 KLWC 251052Z AUTO 12003KT 10SM CLR 27/23 A2986 RMK AO1 RAB07E24 SLP102 P0002 T02670228
KFOE - Topeka/Forbes, Kansas, USA
Distance from station: WNW 43mi, 70km
Updated: Sat, 25-Jun-2022 5:53am CDT
Light rain, Partly cloudy
Light rain, Partly cloudy
 Wind from SW
Wind: SW 26 mph , 43 km/h, Gust: 43 mph , 69 km/h
Temperature: 82°F , 28°C
Heat Index: 86°F , 30°C
Dew Point: 70°F , 21°C
Humidity: 66%
Barometer: 29.81 inHg , 1009.5 hPa
Summary: Light rain
Clouds: Partly cloudy
Visibility: 10 miles , 16 km
Cloud details: Few Clouds 8500 ft
Partly cloudy 11000 ft
2022/06/25 10:53 KFOE 251053Z 22023G37KT 10SM -RA FEW085 SCT110 28/21 A2981 RMK AO2 PK WND 21037/1052 RAB50 SLP079 P0000 T02780211 $
 
KMCI - Kansas City/Intl, Missouri, USA
Distance from station: N 45mi, 73km
Updated: Sat, 25-Jun-2022 5:53am CDT
Mostly cloudy
Mostly cloudy
 Wind from SSW
Wind: SSW 15 mph , 24 km/h, Gust: 23 mph , 37 km/h
Temperature: 81°F , 27°C
Heat Index: 85°F , 29°C
Dew Point: 72°F , 22°C
Humidity: 74%
Barometer: 29.86 inHg , 1011.2 hPa
Clouds: Mostly cloudy
Visibility: 10 miles , 16 km
Cloud details: Mostly cloudy 13000 ft
2022/06/25 10:53 KMCI 251053Z 21013G20KT 10SM BKN130 27/22 A2986 RMK AO2 SLP098 T02720222
KRCM - Warrensburg Skyh, Missouri, USA
Distance from station: ENE 49mi, 80km
Updated: Sat, 25-Jun-2022 5:55am CDT
Clear
Clear
 Wind from S
Wind: S 12 mph , 19 km/h, Gust: 17 mph , 28 km/h
Temperature: 79°F , 26°C
Dew Point: 70°F , 21°C
Humidity: 74%
Barometer: 29.87 inHg , 1011.5 hPa
Clouds: Clear
Visibility: 10 miles , 16 km
2022/06/25 10:55 KRCM 251055Z AUTO 17010G15KT 10SM CLR 26/21 A2987 RMK AO2